createdAt,value
2022-09-10T00:01:59.359Z,17.59
2022-09-10T00:04:30.176Z,17.66
2022-09-10T00:06:59.989Z,17.63
2022-09-10T00:09:29.605Z,17.60
2022-09-10T00:11:59.411Z,17.59
2022-09-10T00:14:31.623Z,17.63
2022-09-10T00:17:01.803Z,17.56
2022-09-10T00:19:33.008Z,17.54
2022-09-10T00:22:02.642Z,17.55
2022-09-10T00:24:33.818Z,17.57
2022-09-10T00:27:03.569Z,17.35
2022-09-10T00:29:35.721Z,17.44
2022-09-10T00:32:07.019Z,17.39
2022-09-10T00:34:36.937Z,17.30
2022-09-10T00:37:06.594Z,17.35
2022-09-10T00:39:36.359Z,17.38
2022-09-10T00:42:06.389Z,17.31
2022-09-10T00:45:01.490Z,17.35
2022-09-10T00:47:36.786Z,17.32
2022-09-10T00:50:15.212Z,17.33
2022-09-10T00:52:47.489Z,17.42
2022-09-10T00:55:19.225Z,17.48
2022-09-10T00:57:52.158Z,17.44
2022-09-10T01:00:25.425Z,17.45
2022-09-10T01:02:55.544Z,17.50
2022-09-10T01:05:25.957Z,17.47
2022-09-10T01:07:57.032Z,17.47
2022-09-10T01:10:30.737Z,17.57
2022-09-10T01:13:33.183Z,17.60
2022-09-10T01:16:19.434Z,17.48
2022-09-10T01:18:57.199Z,17.52
2022-09-10T01:21:31.675Z,17.54
2022-09-10T01:24:40.477Z,17.53
2022-09-10T01:27:41.633Z,17.51
2022-09-10T01:30:15.827Z,17.40
2022-09-10T01:32:57.934Z,17.47
2022-09-10T01:35:37.917Z,17.44
2022-09-10T01:38:13.613Z,17.46
2022-09-10T01:40:44.556Z,17.60
2022-09-10T01:43:22.684Z,17.45
2022-09-10T01:46:10.934Z,17.52
2022-09-10T01:48:57.830Z,17.55
2022-09-10T01:51:34.922Z,17.55
2022-09-10T01:54:25.439Z,17.53
2022-09-10T01:57:07.525Z,17.60
2022-09-10T01:59:47.018Z,17.57
2022-09-10T02:02:21.713Z,17.50
2022-09-10T02:04:53.595Z,17.42
2022-09-10T02:07:26.951Z,17.47
2022-09-10T02:09:57.617Z,17.38
2022-09-10T02:12:29.124Z,17.35
2022-09-10T02:15:12.923Z,17.37
2022-09-10T02:17:58.981Z,17.19
2022-09-10T02:20:31.277Z,17.14
2022-09-10T02:23:02.658Z,17.13
2022-09-10T02:25:37.558Z,17.16
2022-09-10T02:28:08.910Z,17.10
2022-09-10T02:30:41.126Z,17.06
2022-09-10T02:33:12.078Z,17.11
2022-09-10T02:35:41.696Z,17.16
2022-09-10T02:38:11.347Z,17.09
2022-09-10T02:40:43.288Z,17.15
2022-09-10T02:43:13.342Z,17.18
2022-09-10T02:45:46.294Z,17.28
2022-09-10T02:48:17.482Z,17.31
2022-09-10T02:50:48.476Z,17.41
2022-09-10T02:53:18.139Z,17.45
2022-09-10T02:55:48.338Z,17.51
2022-09-10T02:58:19.153Z,17.55
2022-09-10T03:00:51.739Z,17.57
2022-09-10T03:03:21.423Z,17.48
2022-09-10T03:05:51.046Z,17.53
2022-09-10T03:08:20.649Z,17.55
2022-09-10T03:10:51.051Z,17.46
2022-09-10T03:13:20.683Z,17.56
2022-09-10T03:15:52.925Z,17.59
2022-09-10T03:18:23.222Z,17.60
2022-09-10T03:20:53.426Z,17.64
2022-09-10T03:23:23.606Z,17.60
2022-09-10T03:25:53.206Z,17.77
2022-09-10T03:28:28.408Z,17.58
2022-09-10T03:31:01.251Z,17.84
2022-09-10T03:33:34.044Z,17.87
2022-09-10T03:36:03.818Z,17.91
2022-09-10T03:38:34.796Z,17.88
2022-09-10T03:41:05.413Z,17.75
2022-09-10T03:43:35.320Z,17.84
2022-09-10T03:46:12.112Z,17.74
2022-09-10T03:48:45.583Z,17.80
2022-09-10T03:51:16.131Z,17.80
2022-09-10T03:53:46.117Z,17.75
2022-09-10T03:56:19.959Z,17.67
2022-09-10T03:58:50.339Z,17.79
2022-09-10T04:01:22.853Z,17.81
2022-09-10T04:03:52.455Z,17.71
2022-09-10T04:06:22.221Z,17.58
2022-09-10T04:08:52.823Z,17.68
2022-09-10T04:11:27.360Z,17.66
2022-09-10T04:13:58.249Z,17.55
2022-09-10T04:16:32.236Z,17.58
2022-09-10T04:19:01.853Z,17.47
2022-09-10T04:21:32.345Z,17.45
2022-09-10T04:24:02.107Z,17.60
2022-09-10T04:26:32.459Z,17.70
2022-09-10T04:29:02.186Z,17.64
2022-09-10T04:31:34.446Z,17.69
2022-09-10T04:34:12.132Z,17.47
2022-09-10T04:36:41.823Z,17.54
2022-09-10T04:39:12.096Z,17.59
2022-09-10T04:41:41.852Z,17.48
2022-09-10T04:44:11.797Z,17.57
2022-09-10T04:46:44.979Z,17.64
2022-09-10T04:49:14.579Z,17.59
2022-09-10T04:51:44.171Z,17.70
2022-09-10T04:54:15.666Z,17.76
2022-09-10T04:56:49.666Z,17.84
2022-09-10T04:59:19.320Z,17.84
2022-09-10T05:01:52.887Z,17.84
2022-09-10T05:04:22.627Z,17.85
2022-09-10T05:06:53.427Z,17.60
2022-09-10T05:09:23.512Z,17.73
2022-09-10T05:11:53.142Z,17.65
2022-09-10T05:15:16.028Z,17.59
2022-09-10T05:17:48.269Z,17.53
2022-09-10T05:20:19.086Z,17.54
2022-09-10T05:22:53.108Z,17.51
2022-09-10T05:25:22.732Z,17.48
2022-09-10T05:27:52.853Z,17.48
2022-09-10T05:30:24.934Z,17.43
2022-09-10T05:32:58.056Z,17.50
2022-09-10T05:35:29.066Z,17.48
2022-09-10T05:37:59.118Z,17.50
2022-09-10T05:40:29.239Z,17.66
2022-09-10T05:43:00.276Z,17.65
2022-09-10T05:45:30.150Z,17.80
2022-09-10T05:48:03.933Z,17.91
2022-09-10T05:50:34.223Z,17.80
2022-09-10T05:53:03.792Z,17.70
2022-09-10T05:55:33.664Z,17.71
2022-09-10T05:58:04.397Z,17.66
2022-09-10T06:00:37.540Z,17.67
2022-09-10T06:03:10.484Z,17.66
2022-09-10T06:05:51.270Z,17.64
2022-09-10T06:08:25.449Z,17.55
2022-09-10T06:10:58.644Z,17.56
2022-09-10T06:13:30.744Z,17.45
2022-09-10T06:16:01.231Z,17.42
2022-09-10T06:18:34.514Z,17.48
2022-09-10T06:21:07.337Z,17.57
2022-09-10T06:23:37.246Z,17.39
2022-09-10T06:26:09.025Z,17.61
2022-09-10T06:28:41.701Z,17.38
2022-09-10T06:31:17.052Z,17.62
2022-09-10T06:33:51.500Z,17.65
2022-09-10T06:36:24.968Z,17.88
2022-09-10T06:38:58.172Z,17.83
2022-09-10T06:41:31.026Z,18.03
2022-09-10T06:44:09.000Z,18.08
2022-09-10T06:47:39.071Z,18.15
2022-09-10T06:49:36.437Z,18.03
2022-09-10T06:52:08.472Z,18.03
2022-09-10T06:54:38.233Z,18.15
2022-09-10T06:57:29.373Z,18.29
2022-09-10T06:59:59.064Z,18.34
2022-09-10T07:02:30.985Z,18.42
2022-09-10T07:05:04.475Z,18.43
2022-09-10T07:07:34.036Z,18.45
2022-09-10T07:10:07.494Z,18.26
2022-09-10T07:12:38.384Z,18.30
2022-09-10T07:15:12.057Z,18.49
2022-09-10T07:17:41.882Z,18.56
2022-09-10T07:20:16.681Z,18.74
2022-09-10T07:22:49.990Z,18.89
2022-09-10T07:25:23.681Z,19.04
2022-09-10T07:28:19.698Z,18.96
2022-09-10T07:30:50.432Z,19.08
2022-09-10T07:33:20.085Z,19.05
2022-09-10T07:35:52.454Z,19.31
2022-09-10T07:38:22.762Z,19.19
2022-09-10T07:40:52.800Z,19.07
2022-09-10T07:43:22.787Z,18.90
2022-09-10T07:45:54.688Z,18.84
2022-09-10T07:48:25.360Z,18.98
2022-09-10T07:51:03.897Z,19.28
2022-09-10T07:53:34.411Z,19.33
2022-09-10T07:56:08.484Z,19.42
2022-09-10T07:58:41.185Z,19.52
2022-09-10T08:01:14.253Z,19.51
2022-09-10T08:03:45.902Z,19.38
2022-09-10T08:06:21.126Z,19.47
2022-09-10T08:08:52.413Z,19.46
2022-09-10T08:11:24.191Z,19.39
2022-09-10T08:13:57.004Z,19.78
2022-09-10T08:16:30.481Z,19.83
2022-09-10T08:19:08.453Z,20.02
2022-09-10T08:21:42.087Z,20.04
2022-09-10T08:24:14.021Z,20.23
2022-09-10T08:26:46.226Z,20.46
2022-09-10T08:29:16.203Z,20.37
2022-09-10T08:31:47.476Z,20.43
2022-09-10T08:34:29.786Z,20.29
2022-09-10T08:37:10.986Z,20.40
2022-09-10T08:39:42.998Z,20.54
2022-09-10T08:42:22.517Z,20.77
2022-09-10T08:44:57.662Z,21.07
2022-09-10T08:47:40.878Z,21.21
2022-09-10T08:50:25.478Z,21.18
2022-09-10T08:53:06.303Z,21.29
2022-09-10T08:55:42.254Z,21.31
2022-09-10T08:58:19.111Z,21.36
2022-09-10T09:00:58.553Z,21.66
2022-09-10T09:03:37.457Z,21.70
2022-09-10T09:06:13.007Z,21.63
2022-09-10T09:08:51.866Z,21.63
2022-09-10T09:11:36.298Z,21.17
2022-09-10T09:14:25.075Z,20.97
2022-09-10T09:17:08.788Z,20.88
2022-09-10T09:19:47.826Z,20.78
2022-09-10T09:22:21.176Z,20.89
2022-09-10T09:25:00.750Z,20.96
2022-09-10T09:27:36.380Z,20.84
2022-09-10T09:30:09.005Z,20.97
2022-09-10T09:32:46.080Z,21.00
2022-09-10T09:35:30.209Z,21.08
2022-09-10T09:38:22.297Z,21.18
2022-09-10T09:40:58.876Z,21.45
2022-09-10T09:43:40.326Z,21.54
2022-09-10T09:46:16.752Z,21.55
2022-09-10T09:48:53.571Z,21.42
2022-09-10T09:51:27.018Z,21.43
2022-09-10T09:54:25.714Z,21.34
2022-09-10T09:56:54.831Z,21.46
2022-09-10T09:59:30.018Z,21.50
2022-09-10T10:02:07.121Z,21.45
2022-09-10T10:04:41.513Z,21.57
2022-09-10T10:07:14.204Z,21.77
2022-09-10T10:09:46.717Z,21.64
2022-09-10T10:12:25.073Z,21.31
2022-09-10T10:14:54.753Z,21.07
2022-09-10T10:17:37.371Z,20.67
2022-09-10T10:20:13.725Z,20.54
2022-09-10T10:22:44.813Z,20.57
2022-09-10T10:25:40.424Z,20.54
2022-09-10T10:28:25.392Z,20.44
2022-09-10T10:30:56.345Z,20.62
2022-09-10T10:33:30.818Z,20.74
2022-09-10T10:36:12.378Z,20.95
2022-09-10T10:38:44.240Z,20.98
2022-09-10T10:41:43.544Z,21.08
2022-09-10T10:44:35.221Z,20.97
2022-09-10T10:47:20.207Z,21.05
2022-09-10T10:50:03.400Z,20.95
2022-09-10T10:52:39.480Z,21.04
2022-09-10T10:55:20.042Z,21.11
2022-09-10T10:58:06.827Z,21.07
2022-09-10T11:00:50.031Z,21.31
2022-09-10T11:03:26.940Z,21.52
2022-09-10T11:06:01.376Z,21.62
2022-09-10T11:08:37.689Z,21.85
2022-09-10T11:11:14.709Z,21.83
2022-09-10T11:13:51.311Z,22.00
2022-09-10T11:16:29.631Z,22.03
2022-09-10T11:19:04.538Z,22.00
2022-09-10T11:21:40.314Z,22.16
2022-09-10T11:24:17.372Z,22.31
2022-09-10T11:26:51.104Z,22.20
2022-09-10T11:29:34.108Z,22.18
2022-09-10T11:32:11.285Z,22.03
2022-09-10T11:34:51.492Z,22.08
2022-09-10T11:37:27.316Z,22.12
2022-09-10T11:40:01.998Z,22.18
2022-09-10T11:42:39.745Z,22.16
2022-09-10T11:45:22.078Z,22.16
2022-09-10T11:48:07.587Z,22.22
2022-09-10T11:50:42.959Z,22.26
2022-09-10T11:53:17.532Z,22.35
2022-09-10T11:56:12.175Z,22.45
2022-09-10T11:58:52.869Z,22.48
2022-09-10T12:01:38.987Z,22.63
2022-09-10T12:04:42.714Z,22.66
2022-09-10T12:07:22.031Z,22.78
2022-09-10T12:10:05.009Z,22.91
2022-09-10T12:12:43.320Z,23.07
2022-09-10T12:15:21.276Z,23.16
2022-09-10T12:17:57.070Z,22.94
2022-09-10T12:20:33.412Z,22.96
2022-09-10T12:23:03.330Z,22.78
2022-09-10T12:25:35.049Z,22.67
2022-09-10T12:28:08.270Z,22.79
2022-09-10T12:31:09.109Z,22.85
2022-09-10T12:34:12.589Z,22.74
2022-09-10T12:37:20.061Z,22.56
2022-09-10T12:40:41.477Z,22.65
2022-09-10T12:43:59.876Z,22.60
2022-09-10T12:46:32.034Z,22.57
2022-09-10T12:49:16.907Z,22.68
2022-09-10T12:52:06.609Z,22.90
2022-09-10T12:54:52.838Z,22.91
2022-09-10T12:57:35.235Z,23.39
2022-09-10T13:00:19.983Z,23.61
2022-09-10T13:02:59.091Z,23.51
2022-09-10T13:05:37.991Z,23.47
2022-09-10T13:08:20.492Z,23.55
2022-09-10T13:10:58.398Z,23.70
2022-09-10T13:13:39.026Z,23.90
2022-09-10T13:16:20.437Z,23.81
2022-09-10T13:18:55.066Z,23.49
2022-09-10T13:21:54.893Z,23.43
2022-09-10T13:24:39.775Z,23.56
2022-09-10T13:27:23.313Z,23.76
2022-09-10T13:30:12.245Z,23.87
2022-09-10T13:32:46.111Z,23.88
2022-09-10T13:35:35.078Z,23.95
2022-09-10T13:38:22.925Z,23.95
2022-09-10T13:41:06.458Z,24.02
2022-09-10T13:43:59.452Z,23.98
2022-09-10T13:46:40.282Z,23.94
2022-09-10T13:49:16.748Z,23.88
2022-09-10T13:51:53.178Z,23.96
2022-09-10T13:54:35.037Z,24.04
2022-09-10T13:57:11.434Z,24.15
2022-09-10T13:59:44.165Z,24.15
2022-09-10T14:02:19.653Z,24.15
2022-09-10T14:04:51.791Z,24.06
2022-09-10T14:07:25.454Z,23.73
2022-09-10T14:09:59.625Z,23.56
2022-09-10T14:12:31.422Z,23.53
2022-09-10T14:15:05.135Z,23.52
2022-09-10T14:17:45.144Z,23.70
2022-09-10T14:20:24.999Z,23.68
2022-09-10T14:22:59.821Z,23.56
2022-09-10T14:25:35.470Z,23.51
2022-09-10T14:28:21.838Z,23.42
2022-09-10T14:30:53.235Z,23.34
2022-09-10T14:33:35.218Z,23.25
2022-09-10T14:36:17.598Z,23.10
2022-09-10T14:38:55.721Z,22.75
2022-09-10T14:41:27.474Z,22.26
2022-09-10T14:44:20.451Z,22.00
2022-09-10T14:46:52.726Z,21.82
2022-09-10T14:49:29.102Z,21.72
2022-09-10T14:51:59.907Z,21.80
2022-09-10T14:54:29.964Z,21.89
2022-09-10T14:57:01.236Z,21.97
2022-09-10T14:59:34.080Z,21.98
2022-09-10T15:02:05.799Z,22.10
2022-09-10T15:04:38.906Z,22.04
2022-09-10T15:07:08.574Z,22.09
2022-09-10T15:09:38.172Z,22.14
2022-09-10T15:12:12.059Z,21.94
2022-09-10T15:14:42.103Z,21.99
2022-09-10T15:17:15.808Z,21.82
2022-09-10T15:19:49.969Z,21.79
2022-09-10T15:22:24.835Z,21.79
2022-09-10T15:25:11.437Z,21.72
2022-09-10T15:27:41.873Z,21.52
2022-09-10T15:30:12.520Z,21.39
2022-09-10T15:32:42.169Z,21.39
2022-09-10T15:35:14.484Z,21.26
2022-09-10T15:37:44.257Z,21.39
2022-09-10T15:40:14.633Z,21.42
2022-09-10T15:42:44.349Z,21.44
2022-09-10T15:45:15.088Z,21.60
2022-09-10T15:47:44.735Z,21.68
2022-09-10T15:50:17.139Z,21.69
2022-09-10T15:52:47.454Z,21.67
2022-09-10T15:55:17.493Z,21.79
2022-09-10T15:57:47.279Z,21.83
2022-09-10T16:00:17.819Z,21.75
2022-09-10T16:02:47.988Z,21.84
2022-09-10T16:05:21.141Z,21.85
2022-09-10T16:07:50.781Z,21.85
2022-09-10T16:10:20.542Z,21.84
2022-09-10T16:12:50.100Z,21.78
2022-09-10T16:15:19.889Z,21.79
2022-09-10T16:17:49.538Z,21.76
2022-09-10T16:20:22.217Z,21.86
2022-09-10T16:22:53.798Z,21.86
2022-09-10T16:25:23.461Z,21.90
2022-09-10T16:27:53.077Z,21.91
2022-09-10T16:30:22.779Z,21.88
2022-09-10T16:32:52.869Z,21.91
2022-09-10T16:35:26.501Z,21.89
2022-09-10T16:37:56.364Z,21.79
2022-09-10T16:40:25.928Z,21.78
2022-09-10T16:42:55.759Z,21.58
2022-09-10T16:45:25.573Z,21.48
2022-09-10T16:48:03.483Z,21.40
2022-09-10T16:50:36.394Z,21.35
2022-09-10T16:53:10.153Z,21.24
2022-09-10T16:55:41.510Z,21.35
2022-09-10T16:58:11.122Z,21.40
2022-09-10T17:00:42.784Z,21.40
2022-09-10T17:03:12.373Z,21.43
2022-09-10T17:05:44.577Z,21.43
2022-09-10T17:08:14.137Z,21.33
2022-09-10T17:10:44.682Z,21.34
2022-09-10T17:13:14.427Z,21.33
2022-09-10T17:15:44.683Z,21.25
2022-09-10T17:18:15.037Z,21.36
2022-09-10T17:20:48.217Z,21.39
2022-09-10T17:23:18.749Z,21.44
2022-09-10T17:25:48.368Z,21.46
2022-09-10T17:28:18.030Z,21.44
2022-09-10T17:30:47.913Z,21.29
2022-09-10T17:33:18.169Z,21.26
2022-09-10T17:35:58.064Z,21.22
2022-09-10T17:38:27.690Z,21.19
2022-09-10T17:40:58.175Z,21.27
2022-09-10T17:43:27.898Z,21.27
2022-09-10T17:45:58.312Z,21.22
2022-09-10T17:48:28.359Z,21.11
2022-09-10T17:51:00.779Z,21.06
2022-09-10T17:53:30.630Z,21.03
2022-09-10T17:56:04.704Z,21.04
2022-09-10T17:58:35.220Z,20.96
2022-09-10T18:01:08.284Z,20.93
2022-09-10T18:03:38.540Z,20.86
2022-09-10T18:06:12.660Z,20.90
2022-09-10T18:08:42.691Z,20.88
2022-09-10T18:11:14.183Z,20.90
2022-09-10T18:13:44.429Z,20.89
2022-09-10T18:16:16.625Z,20.85
2022-09-10T18:18:47.563Z,20.82
2022-09-10T18:21:21.196Z,20.81
2022-09-10T18:23:54.403Z,20.80
2022-09-10T18:26:26.746Z,20.78
2022-09-10T18:28:59.488Z,20.77
2022-09-10T18:31:30.952Z,20.69
2022-09-10T18:34:01.531Z,20.65
2022-09-10T18:36:34.721Z,20.69
2022-09-10T18:39:05.185Z,20.72
2022-09-10T18:41:36.950Z,20.75
2022-09-10T18:44:08.453Z,20.72
2022-09-10T18:46:38.767Z,20.67
2022-09-10T18:49:08.478Z,20.58
2022-09-10T18:51:42.225Z,20.59
2022-09-10T18:54:13.383Z,20.63
2022-09-10T18:56:45.068Z,20.64
2022-09-10T18:59:17.314Z,20.66
2022-09-10T19:01:47.156Z,20.57
2022-09-10T19:04:20.095Z,20.53
2022-09-10T19:06:52.790Z,20.53
2022-09-10T19:09:24.281Z,20.49
2022-09-10T19:11:56.620Z,20.54
2022-09-10T19:14:29.416Z,20.49
2022-09-10T19:17:00.410Z,20.52
2022-09-10T19:19:31.832Z,20.40
2022-09-10T19:22:07.242Z,20.43
2022-09-10T19:24:54.566Z,20.37
2022-09-10T19:27:24.958Z,20.13
2022-09-10T19:29:55.865Z,20.38
2022-09-10T19:32:25.453Z,20.41
2022-09-10T19:34:55.466Z,20.41
2022-09-10T19:37:28.560Z,20.39
2022-09-10T19:39:59.117Z,20.39
2022-09-10T19:42:28.897Z,20.36
2022-09-10T19:44:58.467Z,20.35
2022-09-10T19:47:28.093Z,20.30
2022-09-10T19:49:59.067Z,20.30
2022-09-10T19:52:32.709Z,20.32
2022-09-10T19:55:02.984Z,20.22
2022-09-10T19:57:33.846Z,20.34
2022-09-10T20:00:03.521Z,20.38
2022-09-10T20:02:41.298Z,20.40
2022-09-10T20:05:11.745Z,20.31
2022-09-10T20:07:44.008Z,20.31
2022-09-10T20:10:13.646Z,20.36
2022-09-10T20:12:43.253Z,20.27
2022-09-10T20:15:13.381Z,20.22
2022-09-10T20:17:42.962Z,20.17
2022-09-10T20:20:13.493Z,20.21
2022-09-10T20:22:45.661Z,20.22
2022-09-10T20:25:15.769Z,20.20
2022-09-10T20:27:45.378Z,20.17
2022-09-10T20:30:15.401Z,20.20
2022-09-10T20:32:45.750Z,20.12
2022-09-10T20:35:15.364Z,20.16
2022-09-10T20:37:51.650Z,20.14
2022-09-10T20:40:21.369Z,20.12
2022-09-10T20:42:54.844Z,20.02
2022-09-10T20:45:24.556Z,20.07
2022-09-10T20:47:54.120Z,20.12
2022-09-10T20:50:23.987Z,20.06
2022-09-10T20:52:56.109Z,20.08
2022-09-10T20:55:25.680Z,20.03
2022-09-10T20:57:55.285Z,19.97
2022-09-10T21:00:25.359Z,19.87
2022-09-10T21:02:55.192Z,19.84
2022-09-10T21:05:25.883Z,19.74
2022-09-10T21:07:59.127Z,19.66
2022-09-10T21:10:28.689Z,19.62
2022-09-10T21:12:58.805Z,19.62
2022-09-10T21:15:30.082Z,19.65
2022-09-10T21:18:00.160Z,19.61
2022-09-10T21:20:29.756Z,19.54
2022-09-10T21:23:02.220Z,19.51
2022-09-10T21:25:31.914Z,19.47
2022-09-10T21:28:01.523Z,19.45
2022-09-10T21:30:31.234Z,19.35
2022-09-10T21:33:00.817Z,19.35
2022-09-10T21:35:31.152Z,19.30
2022-09-10T21:38:03.258Z,19.27
2022-09-10T21:40:32.798Z,19.20
2022-09-10T21:43:04.182Z,19.14
2022-09-10T21:45:33.729Z,19.07
2022-09-10T21:48:03.254Z,19.09
2022-09-10T21:50:32.818Z,19.07
2022-09-10T21:53:04.904Z,19.06
2022-09-10T21:55:34.438Z,19.03
2022-09-10T21:58:03.965Z,18.89
2022-09-10T22:00:33.584Z,18.93
2022-09-10T22:03:04.286Z,18.86
2022-09-10T22:05:33.854Z,18.80
2022-09-10T22:08:07.066Z,18.75
2022-09-10T22:10:37.027Z,18.80
2022-09-10T22:13:06.545Z,18.79
2022-09-10T22:15:41.298Z,18.80
2022-09-10T22:18:11.965Z,18.76
2022-09-10T22:20:41.492Z,18.72
2022-09-10T22:23:14.034Z,18.74
2022-09-10T22:25:43.624Z,18.63
2022-09-10T22:28:13.128Z,18.65
2022-09-10T22:30:42.643Z,18.72
2022-09-10T22:33:12.176Z,18.73
2022-09-10T22:35:41.717Z,18.69
2022-09-10T22:38:19.085Z,18.65
2022-09-10T22:40:49.208Z,18.49
2022-09-10T22:43:19.489Z,18.49
2022-09-10T22:45:49.130Z,18.40
2022-09-10T22:48:18.658Z,18.35
2022-09-10T22:50:48.300Z,18.26
2022-09-10T22:53:21.534Z,18.34
2022-09-10T22:55:51.054Z,18.28
2022-09-10T22:58:20.582Z,18.18
2022-09-10T23:00:50.124Z,18.27
2022-09-10T23:03:20.545Z,18.16
2022-09-10T23:05:50.498Z,18.04
2022-09-10T23:08:22.610Z,18.11
2022-09-10T23:10:52.170Z,18.10
2022-09-10T23:13:21.838Z,18.05
2022-09-10T23:15:51.977Z,18.03
2022-09-10T23:18:21.513Z,18.05
2022-09-10T23:20:51.029Z,18.05
2022-09-10T23:23:23.129Z,18.04
2022-09-10T23:25:52.702Z,18.03
2022-09-10T23:28:22.218Z,18.06
2022-09-10T23:30:52.150Z,18.10
2022-09-10T23:33:21.820Z,18.09
2022-09-10T23:35:52.498Z,18.12
2022-09-10T23:38:24.784Z,18.17
2022-09-10T23:40:54.432Z,18.05
2022-09-10T23:43:24.421Z,18.02
2022-09-10T23:45:54.106Z,18.03
2022-09-10T23:48:25.048Z,17.97
2022-09-10T23:50:55.466Z,17.93
2022-09-10T23:53:28.683Z,17.94
2022-09-10T23:55:58.839Z,17.91
2022-09-10T23:58:28.396Z,17.86
